Airfield :
LOGIN :

Register | Disclaimer

   EN    FR    IT 

 










Legend :    VFR   Marginal VFR   IFR   Intensive IFR   Very Intensive IFR
Visi :
Ceiling :
>= 8 km
>= 3000ft
5 to 8 km
1000 to 3000 ft
1500m to 5 km
500 to 1000 ft
800 to 1500m
200 to 500 ft
< 800m
< 200 ft
Symbols :   Thunderstorms  Fog  Heavy snow  Heavy precipitations  Wind > 20 kt
SIGMETs :     Misc.  Thunderstorms  Icing  Turbulence  Mountain Waves  Volcanic Ashes






- Airport Elevation : 364 ft


LFAQ - Albert Bray

CURRENT METAR :
  • 030700Z AUTO VRB02KT 8000 OVC004 14/13 Q1013 TEMPO 4000 RA BKN003 SCT030CB

EXPIRED METARs :
  • 030630Z AUTO VRB03KT 7000 BKN004 BKN019 BKN100 13/13 Q1013 TEMPO 4000 RA BKN007 SCT030CB
  • 030600Z AUTO 34003KT 310V030 6000 BKN003 OVC086 13/12 Q1013 TEMPO 4000 RA BKN007 SCT030CB
  • 030530Z AUTO 03004KT 4800 BR NSC 13/12 Q1013 TEMPO RA BKN007 SCT030CB
  • 030500Z AUTO 06003KT 3500 -RA BR NSC 12/12 Q1013
  • 030430Z AUTO VRB02KT 3700 BR FEW004 SCT015 BKN078 12/12 Q1013

TAF AMD TAF LFAQ
Valid from the 03 at 06:00 until the 03 at 15:00 UTC


030618Z 0306/0315 VRB03KT 9999 BKN030
TEMPO 0306/0309 4000 RA BKN003 SCT030CB
TEMPO 0309/0315 3000 SHRA BKN025TCU



MET'MAP, your aeronautical weather chart ! - Copyright ORBIFLY December 2007 - Disclaimer

ORBIFLY MET'MAP TEAM :

Programming & Development : Alexandra Zaïnal
Concept & original design : Baudouin d'Aumeries
Assistance for programming : Marc-Olivier Méhu
Technical & hardware support : Manuel Goepfert

Contact : metmap@orbifly.com




SOURCES & CREDITS :

   NOAA